Time;durP1;ratioP1;P1;durP2;ratioP2;P2;SDS_P1;SDS_P2;PMS_P1;PMS_P2;Temp;Humidity;BMP_temperature;BMP_pressure;BME280_temperature;BME280_humidity;BME280_pressure;Samples;Min_cycle;Max_cycle;Signal;HPM_P1;HPM_P2
2021/01/16 00:00:48;;;;;;;40.15;24.80;;;5.50;71.80;;;;;;4919983;29;20047;-72
2021/01/16 00:03:17;;;;;;;37.75;23.20;;;5.30;71.80;;;;;;4919688;29;20047;-72
2021/01/16 00:05:45;;;;;;;41.42;24.25;;;5.30;71.80;;;;;;4919260;29;20132;-72
2021/01/16 00:08:13;;;;;;;38.83;23.17;;;4.90;71.80;;;;;;4919121;29;20032;-72
2021/01/16 00:10:44;;;;;;;35.03;21.05;;;4.70;71.80;;;;;;4919583;29;20095;-72
2021/01/16 00:13:15;;;;;;;36.90;21.52;;;5.20;72.10;;;;;;4919350;29;20063;-72
2021/01/16 00:15:41;;;;;;;30.75;20.30;;;4.90;71.80;;;;;;4919868;29;20175;-72
2021/01/16 00:20:42;;;;;;;33.28;18.15;;;5.50;72.20;;;;;;4878037;29;20061;-72
2021/01/16 00:23:08;;;;;;;28.30;18.38;;;5.30;72.40;;;;;;4881433;29;20091;-72
2021/01/16 00:25:35;;;;;;;29.17;17.42;;;5.40;72.50;;;;;;4881683;29;20041;-72
2021/01/16 00:28:01;;;;;;;28.95;17.13;;;5.40;72.50;;;;;;4881449;29;20049;-72
2021/01/16 00:30:29;;;;;;;27.50;16.13;;;5.30;72.20;;;;;;4881541;29;20097;-72
2021/01/16 00:32:56;;;;;;;24.42;15.70;;;5.50;72.20;;;;;;4880586;29;20104;-72
2021/01/16 00:35:23;;;;;;;24.20;15.10;;;5.20;72.00;;;;;;4881348;29;20041;-72
2021/01/16 00:37:50;;;;;;;24.42;15.65;;;5.30;72.00;;;;;;4881144;29;20067;-72
2021/01/16 00:40:21;;;;;;;22.77;14.85;;;5.30;72.10;;;;;;4864088;29;20045;-72
2021/01/16 00:42:50;;;;;;;24.02;14.77;;;5.20;72.00;;;;;;4862723;29;20045;-72
2021/01/16 00:45:17;;;;;;;24.48;15.70;;;5.00;72.00;;;;;;4878581;29;20037;-72
2021/01/16 00:47:44;;;;;;;26.83;16.45;;;5.70;72.50;;;;;;4865308;29;20093;-72
2021/01/16 00:50:12;;;;;;;27.73;16.25;;;5.50;72.70;;;;;;4881292;29;20041;-72
2021/01/16 00:52:38;;;;;;;23.33;15.93;;;5.10;72.60;;;;;;4881402;29;20043;-72
2021/01/16 00:55:08;;;;;;;27.83;15.85;;;5.50;73.00;;;;;;4878441;29;20529;-72
2021/01/16 00:57:37;;;;;;;25.40;15.50;;;5.60;72.90;;;;;;4879927;29;20492;-72
2021/01/16 01:00:06;;;;;;;25.85;16.05;;;5.80;73.10;;;;;;4881026;29;20037;-72
2021/01/16 01:02:34;;;;;;;24.73;16.55;;;5.80;73.10;;;;;;4881114;29;20053;-72
2021/01/16 01:05:00;;;;;;;25.75;16.25;;;6.00;73.20;;;;;;4880464;29;20037;-72
2021/01/16 01:07:26;;;;;;;26.05;16.35;;;5.90;73.00;;;;;;4878870;29;20045;-72
2021/01/16 01:09:52;;;;;;;29.55;18.75;;;6.20;73.20;;;;;;4878905;29;20354;-72
2021/01/16 01:12:17;;;;;;;28.40;18.92;;;6.10;73.00;;;;;;4878904;29;20049;-72
2021/01/16 01:14:43;;;;;;;34.13;20.92;;;6.00;72.80;;;;;;4878700;29;20527;-72
2021/01/16 01:17:17;;;;;;;31.27;20.20;;;6.00;72.80;;;;;;4878670;29;20077;-72
2021/01/16 01:19:43;;;;;;;30.33;18.30;;;5.70;72.60;;;;;;4878940;29;20061;-72
2021/01/16 01:22:09;;;;;;;27.13;17.95;;;6.30;73.00;;;;;;4879881;29;20105;-72
2021/01/16 01:24:36;;;;;;;27.38;16.83;;;5.70;72.60;;;;;;4880599;29;20075;-72
2021/01/16 01:27:06;;;;;;;26.17;16.35;;;6.00;72.70;;;;;;4870006;29;20041;-72
2021/01/16 01:29:32;;;;;;;24.88;15.82;;;6.00;72.70;;;;;;4880654;29;20045;-72
2021/01/16 01:31:58;;;;;;;26.55;15.73;;;6.00;72.70;;;;;;4866196;29;20045;-72
2021/01/16 01:34:24;;;;;;;23.27;15.05;;;5.90;72.60;;;;;;4862264;29;20034;-72
2021/01/16 01:36:50;;;;;;;26.02;15.30;;;5.90;72.60;;;;;;4862174;29;20073;-72
2021/01/16 01:39:16;;;;;;;22.27;14.85;;;6.30;72.80;;;;;;4862229;29;20049;-72
2021/01/16 01:41:41;;;;;;;22.20;15.25;;;6.10;72.70;;;;;;4861953;29;20041;-72
2021/01/16 01:44:07;;;;;;;24.52;15.45;;;5.80;72.50;;;;;;4865921;29;20071;-72
2021/01/16 01:46:35;;;;;;;22.70;15.15;;;5.60;72.40;;;;;;4861785;29;20044;-72
2021/01/16 01:49:02;;;;;;;27.17;16.73;;;5.80;72.60;;;;;;4876802;29;20189;-72
2021/01/16 01:51:31;;;;;;;27.15;15.90;;;6.00;72.70;;;;;;4880378;29;20088;-73
2021/01/16 01:53:59;;;;;;;26.42;16.30;;;5.70;72.60;;;;;;4880290;29;20048;-72
2021/01/16 01:56:28;;;;;;;25.75;15.00;;;6.00;72.80;;;;;;4880310;29;20045;-72
2021/01/16 01:58:58;;;;;;;25.65;14.45;;;6.60;73.10;;;;;;4879364;29;20086;-72
2021/01/16 02:01:29;;;;;;;23.70;14.95;;;5.80;72.70;;;;;;4879957;29;20040;-72
2021/01/16 02:03:58;;;;;;;24.27;14.40;;;6.10;72.70;;;;;;4873703;29;20576;-72
2021/01/16 02:06:24;;;;;;;22.73;13.95;;;5.80;72.60;;;;;;4878163;29;20037;-72
2021/01/16 02:08:50;;;;;;;24.45;14.52;;;5.70;72.50;;;;;;4877987;29;20128;-72
2021/01/16 02:11:16;;;;;;;25.05;14.00;;;5.70;72.40;;;;;;4878049;29;20527;-72
2021/01/16 02:13:42;;;;;;;20.35;13.75;;;5.60;72.40;;;;;;4878137;29;20057;-72
2021/01/16 02:16:26;;;;;;;22.05;14.50;;;6.00;72.70;;;;;;4878018;29;20041;-72
2021/01/16 02:18:56;;;;;;;24.08;14.27;;;6.00;72.50;;;;;;4877962;29;20079;-72
2021/01/16 02:21:25;;;;;;;20.63;14.48;;;5.70;72.50;;;;;;4877860;29;20049;-72
2021/01/16 02:23:59;;;;;;;20.92;13.90;;;5.60;72.40;;;;;;4877443;29;20155;-72
2021/01/16 02:26:36;;;;;;;22.40;14.40;;;6.00;72.60;;;;;;4861280;29;20041;-72
2021/01/16 02:29:06;;;;;;;21.80;13.90;;;5.90;72.50;;;;;;4875580;29;20136;-72
2021/01/16 02:31:59;;;;;;;24.40;14.70;;;5.90;72.60;;;;;;4879905;29;20052;-72
2021/01/16 02:34:41;;;;;;;24.50;14.88;;;5.60;72.40;;;;;;4879856;29;20044;-72
2021/01/16 02:37:39;;;;;;;23.45;14.02;;;5.70;72.60;;;;;;4879526;29;20037;-72
2021/01/16 02:40:31;;;;;;;27.02;14.55;;;5.70;72.60;;;;;;4872347;29;20033;-72
2021/01/16 02:43:19;;;;;;;25.02;14.48;;;6.20;72.90;;;;;;4879499;29;20564;-72
2021/01/16 02:45:58;;;;;;;21.63;14.27;;;5.80;72.60;;;;;;4879545;29;20037;-72
2021/01/16 02:48:30;;;;;;;22.27;14.13;;;5.80;72.60;;;;;;4879686;29;20044;-72
2021/01/16 02:51:01;;;;;;;28.05;15.00;;;5.70;72.60;;;;;;4879458;29;20037;-72
2021/01/16 02:53:35;;;;;;;24.70;14.75;;;5.80;72.70;;;;;;4879739;29;20048;-72
2021/01/16 02:56:14;;;;;;;25.33;15.27;;;5.90;72.60;;;;;;4882711;29;20048;-72
2021/01/16 02:58:40;;;;;;;24.88;14.55;;;6.00;72.60;;;;;;4883561;29;20044;-72
2021/01/16 03:01:06;;;;;;;24.15;14.75;;;5.70;72.40;;;;;;4882701;29;20133;-72
2021/01/16 03:03:32;;;;;;;23.15;14.55;;;5.60;72.30;;;;;;4883161;29;20100;-72
2021/01/16 03:05:57;;;;;;;24.50;14.25;;;5.70;72.30;;;;;;4883184;29;20128;-72
2021/01/16 03:08:23;;;;;;;25.55;15.35;;;5.70;72.30;;;;;;4883179;29;20468;-72
2021/01/16 03:10:50;;;;;;;25.83;15.25;;;5.70;72.40;;;;;;4882858;29;20081;-72
2021/01/16 03:13:16;;;;;;;24.58;14.98;;;5.70;72.40;;;;;;4882843;29;20101;-72
2021/01/16 03:15:43;;;;;;;25.33;15.70;;;5.80;72.50;;;;;;4882806;29;20041;-72
2021/01/16 03:18:17;;;;;;;25.65;15.13;;;5.80;72.50;;;;;;4882685;29;20072;-72
2021/01/16 03:20:42;;;;;;;24.80;15.35;;;5.90;72.60;;;;;;4882696;29;20044;-73
2021/01/16 03:23:08;;;;;;;28.75;15.60;;;5.40;72.30;;;;;;4882327;29;20059;-72
2021/01/16 03:25:34;;;;;;;24.40;15.10;;;5.80;72.50;;;;;;4882822;29;20045;-72
2021/01/16 03:28:00;;;;;;;25.10;15.25;;;6.00;72.70;;;;;;4882646;29;20041;-72
2021/01/16 03:30:27;;;;;;;25.15;14.95;;;6.00;72.40;;;;;;4882898;29;20048;-72
2021/01/16 03:32:53;;;;;;;23.63;14.93;;;5.90;72.40;;;;;;4882613;29;20044;-72
2021/01/16 03:35:23;;;;;;;23.40;15.75;;;6.10;72.50;;;;;;4882522;29;20573;-72
2021/01/16 03:37:49;;;;;;;27.13;16.30;;;6.10;72.50;;;;;;4882639;29;20124;-72
2021/01/16 03:40:16;;;;;;;27.88;16.00;;;5.70;72.40;;;;;;4882595;29;20041;-72
2021/01/16 03:42:43;;;;;;;25.98;15.98;;;6.00;72.70;;;;;;4882426;29;20101;-72
2021/01/16 03:45:13;;;;;;;25.13;15.93;;;5.80;72.50;;;;;;4882252;29;20037;-72
2021/01/16 03:47:38;;;;;;;28.00;15.57;;;6.10;72.60;;;;;;4882343;29;20052;-72
2021/01/16 03:50:06;;;;;;;26.85;15.35;;;6.10;72.50;;;;;;4881945;29;20049;-72
2021/01/16 03:52:38;;;;;;;25.80;15.77;;;6.20;72.50;;;;;;4881694;29;20059;-72
2021/01/16 03:55:05;;;;;;;26.88;15.45;;;5.80;72.20;;;;;;4882132;29;20037;-73
2021/01/16 03:57:31;;;;;;;27.25;15.55;;;5.90;72.20;;;;;;4882127;29;20072;-72
2021/01/16 03:59:57;;;;;;;23.45;14.38;;;6.00;72.30;;;;;;4882000;29;20037;-72
2021/01/16 04:02:23;;;;;;;25.15;15.77;;;6.10;72.40;;;;;;4881839;29;20052;-72
2021/01/16 04:04:50;;;;;;;24.30;15.23;;;6.10;72.60;;;;;;4881787;29;20041;-72
2021/01/16 04:07:16;;;;;;;22.13;15.05;;;5.90;72.40;;;;;;4881968;29;20097;-72
2021/01/16 04:09:43;;;;;;;25.23;15.95;;;6.10;72.50;;;;;;4881883;29;20049;-72
2021/01/16 04:12:10;;;;;;;23.77;15.07;;;6.10;72.50;;;;;;4881973;29;20037;-72
2021/01/16 04:14:36;;;;;;;24.92;15.77;;;6.10;72.50;;;;;;4881945;29;20049;-72
2021/01/16 04:17:09;;;;;;;25.77;15.27;;;6.20;72.60;;;;;;4881647;29;20041;-72
2021/01/16 04:19:36;;;;;;;25.83;15.57;;;6.20;72.50;;;;;;4881916;29;20126;-72
2021/01/16 04:22:03;;;;;;;24.13;15.52;;;6.30;72.50;;;;;;4882096;29;20091;-73
2021/01/16 04:24:29;;;;;;;24.17;15.20;;;6.30;72.60;;;;;;4881562;29;20048;-72
2021/01/16 04:26:56;;;;;;;24.05;15.20;;;6.20;72.60;;;;;;4881805;29;20048;-72
2021/01/16 04:29:22;;;;;;;27.92;15.23;;;6.20;72.50;;;;;;4882113;29;20049;-72
2021/01/16 04:31:48;;;;;;;24.60;15.63;;;6.50;72.60;;;;;;4881815;29;20131;-72
2021/01/16 04:34:15;;;;;;;26.40;15.73;;;6.30;72.50;;;;;;4881456;29;20053;-72
2021/01/16 04:36:41;;;;;;;24.85;15.15;;;6.50;72.60;;;;;;4881353;29;20084;-72
2021/01/16 04:39:07;;;;;;;24.75;15.82;;;6.40;72.50;;;;;;4881471;29;20128;-73
2021/01/16 04:41:35;;;;;;;25.52;15.25;;;6.40;72.40;;;;;;4880848;29;20528;-72
2021/01/16 04:44:01;;;;;;;25.23;15.07;;;6.40;72.40;;;;;;4881428;29;20061;-72
2021/01/16 04:46:28;;;;;;;27.00;16.23;;;6.50;72.40;;;;;;4881376;29;20085;-72
2021/01/16 04:48:59;;;;;;;26.35;15.75;;;6.30;72.20;;;;;;4881581;29;20045;-72
2021/01/16 04:51:33;;;;;;;24.85;14.82;;;6.50;72.20;;;;;;4880922;29;20124;-72
2021/01/16 04:54:01;;;;;;;24.65;15.23;;;6.30;72.10;;;;;;4881643;29;20048;-73
2021/01/16 04:56:29;;;;;;;24.17;14.43;;;6.30;72.10;;;;;;4881339;29;20043;-72
2021/01/16 04:58:55;;;;;;;23.55;14.98;;;6.30;72.10;;;;;;4881228;29;20512;-73
2021/01/16 05:01:21;;;;;;;23.75;14.65;;;6.30;72.20;;;;;;4881099;29;20105;-72
2021/01/16 05:03:51;;;;;;;26.02;15.50;;;6.40;72.30;;;;;;4881130;29;20049;-72
2021/01/16 05:06:19;;;;;;;23.45;14.77;;;6.40;72.20;;;;;;4881148;29;20041;-72
2021/01/16 05:08:46;;;;;;;24.08;15.13;;;6.30;72.20;;;;;;4881218;29;20043;-73
2021/01/16 05:11:35;;;;;;;23.95;15.07;;;6.30;72.10;;;;;;4881039;29;20056;-72
2021/01/16 05:14:14;;;;;;;25.08;14.23;;;6.10;72.00;;;;;;4881145;29;20068;-72
2021/01/16 05:16:58;;;;;;;23.58;13.95;;;6.30;72.10;;;;;;4881185;29;20115;-72
2021/01/16 05:19:31;;;;;;;24.73;14.18;;;6.20;72.10;;;;;;4873836;29;20063;-72
2021/01/16 05:21:58;;;;;;;24.30;14.50;;;6.30;72.20;;;;;;4873882;29;20050;-72
2021/01/16 05:24:24;;;;;;;26.15;15.35;;;6.30;72.20;;;;;;4880652;29;20065;-72
2021/01/16 05:27:01;;;;;;;24.58;14.70;;;6.50;72.30;;;;;;4880461;29;20097;-72
2021/01/16 05:29:27;;;;;;;26.52;14.80;;;6.30;72.20;;;;;;4880255;29;20132;-72
2021/01/16 05:31:55;;;;;;;22.75;14.55;;;6.50;72.30;;;;;;4880649;29;20105;-72
2021/01/16 05:34:29;;;;;;;25.13;15.27;;;6.40;72.30;;;;;;4874424;29;20136;-72
2021/01/16 05:36:55;;;;;;;23.50;14.88;;;6.20;72.10;;;;;;4865594;29;20033;-72
2021/01/16 05:39:25;;;;;;;24.02;15.50;;;6.50;72.30;;;;;;4861700;29;20145;-72
2021/01/16 05:42:04;;;;;;;25.60;14.35;;;6.40;72.30;;;;;;4861617;29;20042;-72
2021/01/16 05:44:31;;;;;;;24.25;14.65;;;6.50;72.40;;;;;;4861508;29;20060;-72
2021/01/16 05:46:57;;;;;;;25.15;13.95;;;6.40;72.30;;;;;;4861314;29;20120;-72
2021/01/16 05:49:25;;;;;;;22.33;13.88;;;6.40;72.30;;;;;;4861607;29;20102;-72
2021/01/16 05:51:54;;;;;;;23.20;14.95;;;6.30;72.20;;;;;;4861572;29;20139;-72
2021/01/16 05:54:20;;;;;;;27.33;14.85;;;6.20;72.20;;;;;;4861208;29;20580;-73
2021/01/16 05:56:48;;;;;;;23.15;13.82;;;6.30;72.30;;;;;;4861830;29;20041;-72
2021/01/16 05:59:19;;;;;;;23.25;14.02;;;6.40;72.40;;;;;;4861581;29;20037;-72
2021/01/16 06:01:47;;;;;;;22.67;14.35;;;6.60;72.50;;;;;;4861683;29;20050;-73
2021/01/16 06:04:17;;;;;;;27.95;13.95;;;6.50;72.40;;;;;;4861353;29;20073;-73
2021/01/16 06:06:43;;;;;;;24.00;14.55;;;6.40;72.40;;;;;;4861212;29;20100;-72
2021/01/16 06:09:22;;;;;;;27.05;14.75;;;6.20;72.40;;;;;;4861139;29;20521;-73
2021/01/16 06:11:50;;;;;;;24.20;14.23;;;6.50;72.50;;;;;;4861234;29;20117;-72
2021/01/16 06:14:17;;;;;;;24.20;13.65;;;6.40;72.40;;;;;;4861587;29;20054;-73
2021/01/16 06:16:46;;;;;;;24.55;14.15;;;6.30;72.30;;;;;;4861408;29;20049;-73
2021/01/16 06:19:17;;;;;;;25.27;14.50;;;6.20;72.30;;;;;;4867468;29;20442;-71
2021/01/16 06:21:44;;;;;;;25.05;14.55;;;6.30;72.60;;;;;;4879516;29;20047;-72
2021/01/16 06:24:14;;;;;;;26.20;14.43;;;6.10;72.50;;;;;;4879941;29;20056;-73
2021/01/16 06:26:42;;;;;;;25.98;14.63;;;6.30;72.70;;;;;;4871007;29;20064;-72
2021/01/16 06:29:24;;;;;;;27.50;15.00;;;6.30;72.80;;;;;;4867778;29;20493;-73
2021/01/16 06:31:50;;;;;;;25.75;14.15;;;6.10;72.70;;;;;;4865229;29;20044;-72
2021/01/16 06:34:31;;;;;;;26.63;15.00;;;6.00;72.60;;;;;;4865038;29;20048;-72
2021/01/16 06:37:06;;;;;;;24.98;14.07;;;6.20;72.80;;;;;;4864524;29;20041;-73
2021/01/16 06:39:37;;;;;;;;;;;6.60;72.90;;;;;;4865521;29;20045;-73
2021/01/16 06:42:09;;;;;;;25.83;14.10;;;6.10;72.70;;;;;;4864553;29;19915;-72
2021/01/16 06:44:35;;;;;;;27.33;15.10;;;6.10;72.70;;;;;;4865022;29;20048;-73
2021/01/16 06:47:01;;;;;;;26.77;14.82;;;6.20;72.60;;;;;;4864929;29;20033;-73
2021/01/16 06:49:30;;;;;;;25.83;15.05;;;6.50;72.80;;;;;;4874680;29;20504;-73
2021/01/16 06:52:01;;;;;;;26.33;14.85;;;6.30;72.70;;;;;;4864405;29;20048;-73
2021/01/16 06:54:29;;;;;;;29.05;15.38;;;6.20;72.70;;;;;;4864691;29;20053;-73
2021/01/16 06:57:14;;;;;;;26.73;14.57;;;6.50;72.90;;;;;;4869638;29;20044;-73
2021/01/16 06:59:42;;;;;;;28.52;16.20;;;6.50;73.00;;;;;;4871763;29;20132;-72
2021/01/16 07:02:28;;;;;;;26.38;14.48;;;6.40;72.90;;;;;;4883389;29;20041;-72
2021/01/16 07:05:08;;;;;;;28.63;16.50;;;6.30;72.90;;;;;;4882649;29;20036;-73
2021/01/16 07:07:36;;;;;;;30.65;15.50;;;6.30;72.90;;;;;;4882981;29;20072;-73
2021/01/16 07:10:04;;;;;;;26.83;15.70;;;6.60;73.20;;;;;;4883090;29;20048;-73
2021/01/16 07:12:30;;;;;;;30.88;16.52;;;6.30;73.10;;;;;;4882710;29;20053;-73
2021/01/16 07:14:56;;;;;;;27.55;16.10;;;6.40;73.10;;;;;;4883231;29;20041;-73
2021/01/16 07:17:24;;;;;;;29.70;16.30;;;6.30;73.10;;;;;;4882977;29;20389;-73
2021/01/16 07:19:51;;;;;;;30.55;16.73;;;6.70;73.40;;;;;;4882482;29;20059;-73
2021/01/16 07:22:17;;;;;;;29.20;16.08;;;6.50;73.20;;;;;;4882486;29;20048;-73
2021/01/16 07:24:44;;;;;;;29.95;16.42;;;6.80;73.50;;;;;;4882551;29;20045;-73
2021/01/16 07:27:13;;;;;;;30.00;15.73;;;6.50;73.30;;;;;;4882549;29;20381;-73
2021/01/16 07:29:42;;;;;;;26.73;15.52;;;6.60;73.60;;;;;;4882633;29;20048;-73
2021/01/16 07:32:16;;;;;;;31.25;15.73;;;6.60;73.50;;;;;;4876853;29;20064;-73
2021/01/16 07:34:49;;;;;;;30.70;16.47;;;6.50;73.50;;;;;;4875525;29;20049;-72
2021/01/16 07:37:19;;;;;;;29.40;16.08;;;6.50;73.40;;;;;;4880926;29;20097;-73
2021/01/16 07:39:46;;;;;;;27.75;16.65;;;6.70;73.70;;;;;;4869798;29;20075;-73
2021/01/16 07:42:15;;;;;;;29.73;16.65;;;6.70;73.70;;;;;;4881997;29;20052;-73
2021/01/16 07:44:43;;;;;;;27.95;16.08;;;6.80;73.90;;;;;;4882350;29;20045;-73
2021/01/16 07:47:37;;;;;;;29.35;16.67;;;6.80;73.80;;;;;;4882016;29;20128;-73
2021/01/16 07:50:09;;;;;;;30.38;16.77;;;6.80;73.90;;;;;;4882098;29;20512;-73
2021/01/16 07:52:38;;;;;;;30.25;16.20;;;7.00;74.10;;;;;;4880903;29;20053;-73
2021/01/16 07:55:06;;;;;;;29.13;16.85;;;6.80;74.00;;;;;;4882285;29;20037;-74
2021/01/16 07:57:33;;;;;;;29.70;17.20;;;6.80;74.00;;;;;;4882080;29;20041;-73
2021/01/16 08:00:07;;;;;;;27.88;16.55;;;6.80;74.00;;;;;;4881417;29;20132;-73
2021/01/16 08:02:47;;;;;;;33.53;17.00;;;7.10;74.20;;;;;;4880676;29;20056;-74
2021/01/16 08:05:53;;;;;;;33.10;17.25;;;7.00;74.10;;;;;;4881898;29;20036;-75
2021/01/16 08:08:34;;;;;;;;;;;7.00;74.20;;;;;;4842854;29;20045;-75
2021/01/16 08:11:02;;;;;;;33.03;16.48;;;6.90;74.20;;;;;;4881179;29;19915;-75
2021/01/16 08:13:28;;;;;;;32.67;16.33;;;7.00;74.40;;;;;;4881449;29;20057;-73
2021/01/16 08:16:02;;;;;;;33.60;17.13;;;6.90;74.50;;;;;;4881543;29;20041;-72
2021/01/16 08:18:32;;;;;;;28.33;15.50;;;7.00;74.40;;;;;;4881134;29;20049;-74
2021/01/16 08:21:05;;;;;;;29.70;16.73;;;6.90;74.30;;;;;;4881637;29;20131;-72
2021/01/16 08:23:48;;;;;;;30.38;17.02;;;7.40;74.70;;;;;;4881524;29;20136;-73
2021/01/16 08:26:18;;;;;;;30.98;16.25;;;7.30;74.70;;;;;;4881657;29;20041;-73
2021/01/16 08:28:44;;;;;;;29.20;16.08;;;7.10;74.70;;;;;;4881813;29;20145;-72
2021/01/16 08:31:39;;;;;;;27.58;15.98;;;7.10;74.70;;;;;;4880734;29;20134;-75
2021/01/16 08:34:06;;;;;;;23.63;11.85;;;7.30;74.90;;;;;;4868978;29;20127;-75
2021/01/16 08:36:34;;;;;;;29.48;15.70;;;7.00;74.60;;;;;;4881318;29;20064;-75
2021/01/16 08:39:24;;;;;;;28.73;16.48;;;7.30;74.90;;;;;;4881298;29;20049;-72
2021/01/16 08:42:02;;;;;;;29.45;16.35;;;7.50;75.00;;;;;;4881375;29;20101;-71
2021/01/16 08:44:49;;;;;;;32.13;16.52;;;7.50;75.00;;;;;;4881181;29;20070;-72
2021/01/16 08:47:16;;;;;;;29.17;15.95;;;7.60;75.20;;;;;;4881069;29;20120;-71
2021/01/16 08:49:42;;;;;;;25.70;15.38;;;7.90;75.20;;;;;;4881244;29;20493;-72
2021/01/16 08:52:09;;;;;;;27.45;16.23;;;7.60;75.00;;;;;;4879902;29;20112;-71
2021/01/16 08:54:34;;;;;;;29.38;16.75;;;7.60;75.10;;;;;;4881176;29;20049;-72
2021/01/16 08:57:00;;;;;;;30.13;16.00;;;7.70;75.20;;;;;;4880845;29;20051;-71
2021/01/16 08:59:33;;;;;;;27.63;15.13;;;7.70;75.20;;;;;;4880767;29;20080;-72
2021/01/16 09:02:10;;;;;;;24.27;15.48;;;7.80;75.40;;;;;;4881148;29;20037;-72
2021/01/16 09:04:39;;;;;;;24.63;14.77;;;7.90;75.50;;;;;;4881005;29;20052;-71
2021/01/16 09:07:25;;;;;;;25.98;15.25;;;7.90;75.40;;;;;;4880331;29;20513;-72
2021/01/16 09:10:01;;;;;;;25.25;14.45;;;8.00;75.50;;;;;;4880614;29;20058;-72
2021/01/16 09:12:34;;;;;;;24.38;15.05;;;8.10;75.50;;;;;;4880534;29;20041;-74
2021/01/16 09:15:21;;;;;;;24.85;14.27;;;8.30;75.60;;;;;;4880851;29;20049;-74
2021/01/16 09:18:10;;;;;;;27.60;14.80;;;8.10;75.50;;;;;;4880802;29;20041;-74
2021/01/16 09:20:39;;;;;;;26.08;14.50;;;8.50;75.70;;;;;;4880185;29;20097;-73
2021/01/16 09:23:20;;;;;;;25.90;14.57;;;8.40;75.60;;;;;;4880654;29;20049;-73
2021/01/16 09:25:46;;;;;;;23.25;14.75;;;8.50;75.70;;;;;;4880853;29;20045;-72
2021/01/16 09:28:12;;;;;;;26.60;14.75;;;8.50;75.60;;;;;;4880743;29;20045;-73
2021/01/16 09:30:38;;;;;;;26.52;15.20;;;8.60;75.70;;;;;;4880970;29;20374;-73
2021/01/16 09:33:20;;;;;;;24.58;14.10;;;8.60;75.60;;;;;;4880791;29;20052;-74
2021/01/16 09:35:46;;;;;;;22.05;14.38;;;8.70;75.70;;;;;;4880561;29;20501;-74
2021/01/16 09:38:20;;;;;;;22.98;13.80;;;8.90;75.70;;;;;;4880177;29;20043;-73
2021/01/16 09:40:50;;;;;;;24.67;14.38;;;8.90;75.70;;;;;;4880438;29;20048;-72
2021/01/16 09:43:20;;;;;;;21.77;13.23;;;9.00;75.70;;;;;;4875442;29;20045;-73
2021/01/16 09:45:50;;;;;;;23.92;14.07;;;9.30;75.80;;;;;;4878862;29;20056;-72
2021/01/16 09:48:32;;;;;;;22.42;14.73;;;8.90;75.60;;;;;;4879250;29;20045;-72
2021/01/16 09:50:59;;;;;;;19.50;12.63;;;9.40;75.80;;;;;;4878966;29;20052;-73
2021/01/16 09:53:26;;;;;;;21.00;13.65;;;9.60;75.90;;;;;;4880518;29;20073;-73
2021/01/16 09:55:55;;;;;;;20.67;14.18;;;9.70;75.80;;;;;;4880296;29;20056;-73
2021/01/16 09:58:40;;;;;;;23.73;14.77;;;9.80;75.80;;;;;;4879966;29;20125;-73
2021/01/16 10:01:19;;;;;;;23.88;14.60;;;10.00;75.70;;;;;;4878747;29;20044;-72
2021/01/16 10:03:46;;;;;;;22.65;14.88;;;10.20;75.70;;;;;;4880143;29;20180;-73
2021/01/16 10:06:17;;;;;;;24.83;14.68;;;10.30;75.70;;;;;;4879886;29;20148;-73
2021/01/16 10:08:43;;;;;;;29.30;17.05;;;10.50;75.80;;;;;;4879808;29;20800;-73
2021/01/16 10:11:10;;;;;;;28.88;17.25;;;10.50;75.70;;;;;;4880363;29;20045;-73
2021/01/16 10:13:37;;;;;;;33.35;19.25;;;10.60;75.60;;;;;;4880039;29;20075;-73
2021/01/16 10:16:08;;;;;;;33.13;21.50;;;10.60;76.00;;;;;;4879229;29;20055;-72
2021/01/16 10:18:35;;;;;;;32.65;19.48;;;10.70;75.40;;;;;;4861242;29;20105;-72
2021/01/16 10:21:08;;;;;;;29.98;18.95;;;10.70;75.50;;;;;;4861360;29;20128;-72
2021/01/16 10:23:44;;;;;;;30.08;18.10;;;10.90;75.60;;;;;;4861558;29;20054;-73
2021/01/16 10:26:15;;;;;;;28.45;17.30;;;10.70;75.60;;;;;;4861628;29;20124;-74
2021/01/16 10:29:06;;;;;;;26.83;15.88;;;10.70;75.80;;;;;;4861115;29;20097;-73
2021/01/16 10:31:32;;;;;;;29.45;17.83;;;10.70;76.10;;;;;;4861442;29;20038;-73
2021/01/16 10:34:12;;;;;;;27.02;17.17;;;10.80;76.10;;;;;;4860733;29;20056;-73
2021/01/16 10:36:39;;;;;;;26.88;15.20;;;10.60;76.10;;;;;;4868054;29;20066;-73
2021/01/16 10:39:36;;;;;;;32.05;16.52;;;10.70;76.20;;;;;;4877981;29;20062;-71
2021/01/16 10:42:19;;;;;;;22.58;14.75;;;10.60;76.40;;;;;;4896090;29;20519;-77
2021/01/16 10:44:46;;;;;;;27.33;13.38;;;10.50;76.40;;;;;;4898275;29;20505;-74
2021/01/16 10:47:38;;;;;;;163.18;22.25;;;10.80;76.70;;;;;;4898089;29;20040;-75
2021/01/16 10:50:08;;;;;;;593.22;59.55;;;10.90;76.90;;;;;;4898404;29;20541;-77
2021/01/16 10:52:34;;;;;;;446.75;42.65;;;11.00;76.90;;;;;;4898358;29;20122;-75
2021/01/16 10:55:07;;;;;;;31.05;16.08;;;11.10;76.90;;;;;;4898328;29;20048;-76
2021/01/16 10:58:02;;;;;;;26.45;15.05;;;11.10;76.80;;;;;;4898305;29;20572;-77
2021/01/16 11:00:42;;;;;;;23.55;14.27;;;11.00;76.70;;;;;;4896782;29;20040;-76
2021/01/16 11:03:17;;;;;;;26.27;14.00;;;10.90;76.70;;;;;;4898495;29;20048;-75
2021/01/16 11:05:49;;;;;;;36.83;20.20;;;11.00;76.80;;;;;;4897924;29;20100;-75
2021/01/16 11:08:25;;;;;;;36.35;22.23;;;11.30;77.00;;;;;;4898452;29;20564;-77
2021/01/16 11:10:51;;;;;;;36.33;22.48;;;11.20;77.10;;;;;;4897221;29;20448;-77
2021/01/16 11:13:22;;;;;;;33.08;21.00;;;11.20;77.00;;;;;;4893197;29;20119;-75
2021/01/16 11:16:13;;;;;;;33.78;20.40;;;11.20;77.30;;;;;;4891014;29;20033;-75
2021/01/16 11:18:41;;;;;;;30.92;17.60;;;11.20;77.40;;;;;;4880849;29;20052;-77
2021/01/16 11:21:09;;;;;;;28.83;18.67;;;11.20;77.40;;;;;;4880845;29;20045;-76
2021/01/16 11:23:45;;;;;;;36.00;21.13;;;11.00;77.50;;;;;;4880816;29;20072;-78
2021/01/16 11:26:12;;;;;;;30.95;20.35;;;10.90;77.80;;;;;;4882161;29;20067;-77
2021/01/16 11:28:56;;;;;;;34.08;20.27;;;11.00;77.90;;;;;;4882289;29;20071;-77
2021/01/16 11:31:36;;;;;;;28.48;18.67;;;10.90;78.10;;;;;;4882452;29;20449;-77
2021/01/16 11:34:08;;;;;;;28.55;18.50;;;11.10;78.80;;;;;;4881993;29;20053;-76
2021/01/16 11:36:53;;;;;;;27.08;17.00;;;11.00;78.30;;;;;;4882401;29;20093;-76
2021/01/16 11:39:50;;;;;;;30.60;16.55;;;11.10;78.50;;;;;;4882436;29;20043;-76
2021/01/16 11:42:17;;;;;;;14.48;6.65;;;11.10;78.60;;;;;;4881919;29;20041;-76
2021/01/16 11:44:59;;;;;;;8.32;3.25;;;11.30;79.00;;;;;;4878432;29;20057;-76
2021/01/16 11:47:27;;;;;;;7.10;1.50;;;11.40;79.60;;;;;;4871138;29;20037;-76
2021/01/16 11:49:53;;;;;;;4.72;1.00;;;11.60;79.70;;;;;;4882359;29;20120;-78
2021/01/16 11:52:19;;;;;;;2.40;0.70;;;11.90;79.90;;;;;;4879413;29;20565;-77
2021/01/16 11:54:45;;;;;;;3.55;0.57;;;12.10;80.10;;;;;;4863546;29;20037;-77
2021/01/16 11:57:14;;;;;;;4.18;0.30;;;12.40;80.30;;;;;;4863750;29;20048;-76
2021/01/16 11:59:41;;;;;;;4.28;0.30;;;12.60;80.50;;;;;;4863369;29;20121;-75
2021/01/16 12:02:15;;;;;;;3.28;0.30;;;12.60;80.30;;;;;;4863393;29;20068;-76
2021/01/16 12:04:42;;;;;;;3.30;0.20;;;12.90;80.50;;;;;;4863286;29;20521;-75
2021/01/16 12:07:11;;;;;;;2.53;0.20;;;13.00;80.40;;;;;;4863234;29;20061;-75
2021/01/16 12:09:38;;;;;;;4.18;0.22;;;13.10;80.40;;;;;;4863203;29;20037;-75
2021/01/16 12:12:07;;;;;;;1.38;0.10;;;13.10;80.40;;;;;;4863518;29;20074;-76
2021/01/16 12:14:34;;;;;;;2.30;0.28;;;13.10;80.50;;;;;;4863624;29;20045;-73
2021/01/16 12:17:07;;;;;;;3.63;0.40;;;13.20;80.60;;;;;;4860937;29;20052;-76
2021/01/16 12:19:34;;;;;;;1.67;0.20;;;13.30;80.70;;;;;;4880088;29;20064;-75
2021/01/16 12:22:06;;;;;;;2.95;0.25;;;13.40;80.70;;;;;;4886541;29;20044;-74
2021/01/16 12:24:32;;;;;;;4.10;0.30;;;13.40;80.50;;;;;;4898882;29;20056;-76
2021/01/16 12:27:06;;;;;;;3.70;0.17;;;13.50;80.60;;;;;;4898721;29;20045;-76
2021/01/16 12:29:38;;;;;;;1.00;0.10;;;13.60;80.70;;;;;;4899481;29;20049;-78
2021/01/16 12:32:07;;;;;;;1.40;0.20;;;13.60;80.60;;;;;;4882265;29;20051;-77
2021/01/16 12:34:33;;;;;;;2.63;0.47;;;13.70;80.70;;;;;;4899067;29;20047;-78
2021/01/16 12:36:59;;;;;;;1.77;0.30;;;13.70;80.60;;;;;;4899084;29;20048;-78
2021/01/16 12:39:26;;;;;;;3.17;0.70;;;13.60;80.60;;;;;;4899382;29;20567;-78
2021/01/16 12:41:58;;;;;;;3.03;0.90;;;13.60;80.60;;;;;;4899912;29;20101;-78
2021/01/16 12:44:25;;;;;;;3.22;0.20;;;13.50;80.60;;;;;;4899861;29;20044;-78
2021/01/16 12:46:52;;;;;;;2.00;0.10;;;13.60;80.80;;;;;;4883016;29;20037;-78
2021/01/16 12:49:19;;;;;;;2.42;0.30;;;13.50;80.80;;;;;;4897424;29;20060;-76
2021/01/16 12:51:47;;;;;;;0.75;0.10;;;13.60;81.20;;;;;;4897496;29;20044;-78
2021/01/16 12:54:17;;;;;;;0.63;0.25;;;13.60;81.20;;;;;;4881564;29;20045;-80
2021/01/16 12:56:49;;;;;;;1.40;0.40;;;13.90;81.20;;;;;;4898453;29;20045;-77
2021/01/16 12:59:17;;;;;;;0.50;0.17;;;13.90;81.00;;;;;;4898227;29;20093;-78